PENO2: Grand Lake O' The Cherokees, Pensacola Dm

Data processed at Sun Dec 16 2018 23:32


All information presented herein is the property of the government of the United States of America and may be revised or deleted at any time without prior notice.
Dissemination of this information without the expressed written consent of the Public Affairs Office, Tulsa District U.S. Army Corps of Engineers is strictly prohibited.
These data are gathered electronically and, as presented, have not undergone any form of quality control. These data are not guaranteed to be valid or correct.
Go to home page.
Go to station list.
Go to home page.

Upstream stations:

Downstream station:
Previous Day
Next Day
Current Day
    
SHEF ID:       PENO2     Pensacola (Grand Lake)
STATION TYPE:  RESERVOIR

               PRECIP ELEVATION   STORAGE    INFLOW   RELEASE  AIR-TEMP  WIND-DIRWIND-SPEED REL-HUMID SOLAR-RAD   VOLTAGE  BAT-LOAD
                   in        ft     ac-ft       cfs       cfs         F       deg       mph         %      W/m2      volt      volt
              Ccp-Rev   Ccp-Rev   Ccp-Rev  Regi-Rev  Regi-Rev   Ccp-Rev   Ccp-Rev   Ccp-Rev   Ccp-Rev   Ccp-Rev   Ccp-Rev   Ccp-Rev
(US/Central)
12/16 00:00      0.00    742.07   1395521      -901      -901     36.07    106.63      0.37     94.19      0.00     12.63     12.41
12/16 01:00      0.00    742.07   1395521      -901      -901     35.91     83.79      0.93     92.34      0.00     12.62     12.41
12/16 02:00      0.00    742.09   1396327      -901      -901     34.65     28.17      0.66     93.76      0.00     12.61     12.41
12/16 03:00      0.00    742.07   1395521      -901      -901     35.74     84.37      0.42     91.93      0.00     12.60     12.41
12/16 04:00      0.00    742.09   1396327      -901      -901     35.73    105.02      0.63     89.13      0.00     12.60     12.41
12/16 05:00      0.00    742.09   1396327      -901      -901     36.12    118.36      0.08     89.83      0.00     12.59     12.41
12/16 06:00      0.00    742.09   1396327      -901      -901     37.87     86.85      0.41     87.24      0.00     12.59     12.41
12/16 07:00      0.00    742.08   1395924      -901      -901     39.09     52.96      0.46     87.81      0.00     12.59     12.41
12/16 08:00      0.00    742.07   1395521      -901      -901     38.26    108.21      0.73     91.85      0.68     13.52     13.21
12/16 09:00      0.00    742.07   1395521      -901      -901     39.76     53.72      0.97     91.83     41.39     13.44     13.21
12/16 10:00      0.00    742.06   1395118      -901      -901     41.34    359.93      0.45     90.63    101.51     13.57     13.13
12/16 11:00      0.00    742.07   1395521      -901      -901     44.28    322.39      1.63     82.22    233.68     14.65     13.05
12/16 12:00      0.00    742.03   1393909      -901      -901     47.32    342.63      1.74     77.87    432.56     14.58     13.13
12/16 13:00      0.00    742.02   1393506      -901      -901     55.60    140.77      0.84     59.58    460.63     13.02     13.13
12/16 14:00      0.00    741.99   1392304      -901      -901     56.32    321.22      3.08     60.80    418.01     12.92     12.73
12/16 15:00      0.00    742.03   1393909      -901      -901     57.72    320.92      4.45     55.39    334.14     12.89     12.65
12/16 16:00      0.00    741.99   1392304      -901      -901     58.84    337.55      2.52     51.79    199.94     12.87     12.65
12/16 17:00      0.00    741.98   1391908      -901      -901     57.54    323.91      0.88     50.59     53.55     12.85     12.65
12/16 18:00      0.00    741.99   1392304      -901      -901     54.03    294.83      1.73     55.62      0.00     12.84     12.65
12/16 19:00      0.00    742.00   1392700      -901      -901     50.81      4.00      0.97     68.04      0.00     12.83     12.65
12/16 20:00      0.00    742.01   1393103       582         0     48.33    357.49      1.40     79.35      0.00     12.81     12.65
12/16 21:00      0.00    741.98   1391908      -901      -901     46.51    352.05      1.12     85.51      0.00     12.80     12.65
12/16 22:00      0.00    742.01   1393103      -901      -901     42.01     95.33      0.78     89.00      0.00     12.78     12.57
12/16 23:00      0.00    742.03   1393909      -901      -901     39.47    104.37      0.33     89.63      0.00     12.77     12.57